Time;durP1;ratioP1;P1;durP2;ratioP2;P2;SDS_P1;SDS_P2;PMS_P1;PMS_P2;Temp;Humidity;BMP_temperature;BMP_pressure;BME280_temperature;BME280_humidity;BME280_pressure;Samples;Min_cycle;Max_cycle;Signal;HPM_P1;HPM_P2
2021/05/20 00:02:02;;;;;;;11.27;5.40;;;;;;;;;;5109242;28;20085;-81
2021/05/20 00:04:46;;;;;;;7.28;3.80;;;;;;;;;;5109540;28;20514;-80
2021/05/20 00:07:31;;;;;;;9.40;4.20;;;;;;;;;;5106436;28;20127;-82
2021/05/20 00:10:15;;;;;;;7.82;3.83;;;;;;;;;;5108151;28;20485;-81
2021/05/20 00:13:00;;;;;;;8.15;3.30;;;;;;;;;;5109656;28;20070;-81
2021/05/20 00:15:45;;;;;;;7.75;3.63;;;;;;;;;;5110783;28;20045;-81
2021/05/20 00:18:29;;;;;;;7.65;3.28;;;;;;;;;;5102106;28;20062;-80
2021/05/20 00:21:14;;;;;;;7.43;3.35;;;;;;;;;;5110302;28;20050;-80
2021/05/20 00:23:58;;;;;;;6.85;3.45;;;;;;;;;;5100496;28;20554;-81
2021/05/20 00:26:43;;;;;;;7.40;3.33;;;;;;;;;;5110098;28;20399;-81
2021/05/20 00:29:27;;;;;;;6.32;3.30;;;;;;;;;;5109641;28;20095;-80
2021/05/20 00:32:12;;;;;;;7.05;3.10;;;;;;;;;;5109870;28;20109;-81
2021/05/20 00:34:56;;;;;;;6.95;3.38;;;;;;;;;;5110157;28;20046;-80
2021/05/20 00:37:41;;;;;;;5.60;3.00;;;;;;;;;;5110209;28;20092;-80
2021/05/20 00:40:25;;;;;;;5.72;3.03;;;;;;;;;;5110470;28;20041;-80
2021/05/20 00:43:10;;;;;;;7.05;3.00;;;;;;;;;;5101975;28;20045;-80
2021/05/20 00:45:55;;;;;;;5.75;2.97;;;;;;;;;;5114988;28;20114;-80
2021/05/20 00:48:40;;;;;;;6.60;3.15;;;;;;;;;;5111229;28;20178;-79
2021/05/20 00:51:24;;;;;;;5.25;2.80;;;;;;;;;;5114376;28;20096;-80
2021/05/20 00:54:10;;;;;;;5.38;2.53;;;;;;;;;;5107039;28;20119;-80
2021/05/20 00:56:54;;;;;;;4.93;2.60;;;;;;;;;;5103633;28;20080;-80
2021/05/20 00:59:39;;;;;;;5.50;2.75;;;;;;;;;;5109258;28;20098;-80
2021/05/20 01:02:24;;;;;;;4.03;2.45;;;;;;;;;;5107789;28;20061;-80
2021/05/20 01:05:12;;;;;;;5.28;2.97;;;;;;;;;;5108738;28;20050;-80
2021/05/20 01:07:57;;;;;;;5.25;2.58;;;;;;;;;;5100376;28;20073;-80
2021/05/20 01:10:41;;;;;;;4.47;2.05;;;;;;;;;;5110343;28;20113;-81
2021/05/20 01:13:27;;;;;;;5.65;2.58;;;;;;;;;;5101082;28;20141;-80
2021/05/20 01:16:12;;;;;;;6.30;2.60;;;;;;;;;;5114860;28;20047;-81
2021/05/20 01:18:57;;;;;;;3.58;2.03;;;;;;;;;;5112512;28;20113;-81
2021/05/20 01:21:43;;;;;;;4.97;2.70;;;;;;;;;;5112462;28;20101;-81
2021/05/20 01:24:27;;;;;;;4.65;2.15;;;;;;;;;;5111010;28;20490;-81
2021/05/20 01:27:13;;;;;;;4.85;2.55;;;;;;;;;;5111351;28;20046;-81
2021/05/20 01:29:57;;;;;;;5.03;2.53;;;;;;;;;;5107139;28;20077;-80
2021/05/20 01:32:42;;;;;;;5.00;2.75;;;;;;;;;;5110079;28;20092;-80
2021/05/20 01:35:26;;;;;;;4.88;2.55;;;;;;;;;;5110169;28;20096;-81
2021/05/20 01:41:07;;;;;;;8.93;3.47;;;;;;;;;;5111933;28;20102;-81
2021/05/20 01:43:53;;;;;;;4.10;2.50;;;;;;;;;;5114412;28;20566;-81
2021/05/20 01:46:38;;;;;;;6.70;3.53;;;;;;;;;;5108567;28;20144;-82
2021/05/20 01:49:22;;;;;;;7.10;2.58;;;;;;;;;;5106733;28;20538;-81
2021/05/20 01:52:07;;;;;;;5.68;2.45;;;;;;;;;;5106797;28;20411;-81
2021/05/20 01:54:52;;;;;;;5.55;2.63;;;;;;;;;;5107412;28;20120;-81
2021/05/20 01:57:36;;;;;;;6.13;2.30;;;;;;;;;;5100645;28;20042;-81
2021/05/20 02:00:21;;;;;;;4.55;2.28;;;;;;;;;;5107990;28;20042;-81
2021/05/20 02:03:06;;;;;;;6.07;3.30;;;;;;;;;;5103979;28;20089;-81
2021/05/20 02:05:50;;;;;;;5.63;2.72;;;;;;;;;;5109493;28;20047;-81
2021/05/20 02:08:35;;;;;;;5.55;2.40;;;;;;;;;;5107034;28;20217;-81
2021/05/20 02:11:20;;;;;;;4.88;2.60;;;;;;;;;;5093512;28;20148;-81
2021/05/20 02:14:05;;;;;;;5.32;2.58;;;;;;;;;;5099222;28;20030;-81
2021/05/20 02:16:49;;;;;;;6.10;2.88;;;;;;;;;;5105668;28;20099;-81
2021/05/20 02:19:34;;;;;;;5.35;2.72;;;;;;;;;;5106697;28;20100;-81
2021/05/20 02:22:18;;;;;;;3.63;2.00;;;;;;;;;;5106909;28;20043;-81
2021/05/20 02:25:04;;;;;;;4.60;2.22;;;;;;;;;;5107807;28;20038;-81
2021/05/20 02:27:48;;;;;;;5.13;2.63;;;;;;;;;;5106347;28;20046;-81
2021/05/20 02:30:33;;;;;;;7.25;2.42;;;;;;;;;;5091033;28;20055;-81
2021/05/20 02:33:17;;;;;;;6.65;2.20;;;;;;;;;;5108562;28;20043;-81
2021/05/20 02:36:02;;;;;;;6.05;2.40;;;;;;;;;;5104626;28;20523;-81
2021/05/20 02:38:47;;;;;;;5.18;2.42;;;;;;;;;;5107319;28;20609;-81
2021/05/20 02:41:31;;;;;;;6.22;2.45;;;;;;;;;;5108212;28;20450;-81
2021/05/20 02:44:16;;;;;;;5.97;2.70;;;;;;;;;;5108097;28;20165;-81
2021/05/20 02:47:00;;;;;;;3.78;2.30;;;;;;;;;;5107740;28;20074;-81
2021/05/20 02:49:45;;;;;;;4.40;2.20;;;;;;;;;;5108845;28;20194;-81
2021/05/20 02:52:29;;;;;;;5.13;2.50;;;;;;;;;;5107902;28;20092;-81
2021/05/20 02:55:14;;;;;;;4.10;2.17;;;;;;;;;;5106972;28;20042;-81
2021/05/20 02:58:01;;;;;;;5.70;2.20;;;;;;;;;;5107513;28;20067;-81
2021/05/20 03:00:47;;;;;;;3.60;1.88;;;;;;;;;;5111711;28;20123;-81
2021/05/20 03:03:32;;;;;;;4.93;1.92;;;;;;;;;;5108244;28;20760;-81
2021/05/20 03:06:16;;;;;;;4.30;1.95;;;;;;;;;;5113049;28;20034;-81
2021/05/20 03:09:01;;;;;;;4.78;1.75;;;;;;;;;;5111656;28;20062;-81
2021/05/20 03:11:45;;;;;;;3.67;1.88;;;;;;;;;;5112378;28;20046;-81
2021/05/20 03:14:30;;;;;;;3.33;1.83;;;;;;;;;;5112153;28;20803;-81
2021/05/20 03:17:14;;;;;;;4.80;1.95;;;;;;;;;;5112320;28;20054;-82
2021/05/20 03:19:59;;;;;;;4.03;1.75;;;;;;;;;;5111824;28;20100;-81
2021/05/20 03:22:46;;;;;;;6.68;2.13;;;;;;;;;;5111763;28;20087;-81
2021/05/20 03:25:34;;;;;;;3.90;1.75;;;;;;;;;;5110617;28;20088;-80
2021/05/20 03:28:18;;;;;;;4.90;2.00;;;;;;;;;;5110824;28;20043;-81
2021/05/20 03:31:03;;;;;;;3.42;1.80;;;;;;;;;;5109098;28;20050;-81
2021/05/20 03:33:47;;;;;;;2.83;1.40;;;;;;;;;;5111789;28;20047;-81
2021/05/20 03:36:32;;;;;;;3.78;1.45;;;;;;;;;;5106372;28;20106;-81
2021/05/20 03:39:17;;;;;;;4.15;1.67;;;;;;;;;;5111361;28;20041;-81
2021/05/20 03:42:02;;;;;;;3.08;1.67;;;;;;;;;;5111084;28;20038;-81
2021/05/20 03:44:47;;;;;;;4.30;1.60;;;;;;;;;;5110686;28;20109;-81
2021/05/20 03:47:31;;;;;;;3.70;1.50;;;;;;;;;;5111589;28;20081;-82
2021/05/20 03:50:16;;;;;;;3.60;1.67;;;;;;;;;;5111845;28;20039;-81
2021/05/20 03:53:01;;;;;;;4.53;1.52;;;;;;;;;;5110159;28;20047;-81
2021/05/20 03:55:47;;;;;;;3.15;1.42;;;;;;;;;;5110544;28;20042;-81
2021/05/20 03:58:32;;;;;;;5.10;1.50;;;;;;;;;;5108157;28;20039;-81
2021/05/20 04:01:16;;;;;;;4.40;1.73;;;;;;;;;;5109777;28;20066;-81
2021/05/20 04:04:01;;;;;;;3.25;1.17;;;;;;;;;;5108405;28;20513;-81
2021/05/20 04:06:46;;;;;;;4.15;1.55;;;;;;;;;;5107359;28;20084;-81
2021/05/20 04:09:30;;;;;;;3.03;1.00;;;;;;;;;;5108409;28;20116;-81
2021/05/20 04:12:15;;;;;;;3.80;1.58;;;;;;;;;;5103366;28;20255;-82
2021/05/20 04:14:59;;;;;;;2.80;1.35;;;;;;;;;;5102890;28;20038;-81
2021/05/20 04:17:45;;;;;;;4.13;1.80;;;;;;;;;;5106950;28;20046;-81
2021/05/20 04:20:30;;;;;;;4.10;1.70;;;;;;;;;;5101734;28;20073;-81
2021/05/20 04:23:14;;;;;;;3.78;1.20;;;;;;;;;;5100064;28;20093;-82
2021/05/20 04:25:59;;;;;;;3.55;1.30;;;;;;;;;;5109385;28;20031;-82
2021/05/20 04:28:43;;;;;;;3.75;1.70;;;;;;;;;;5106198;28;20403;-81
2021/05/20 04:31:28;;;;;;;2.65;1.10;;;;;;;;;;5109777;28;20050;-80
2021/05/20 04:34:13;;;;;;;3.97;1.40;;;;;;;;;;5108507;28;20088;-79
2021/05/20 04:36:57;;;;;;;3.80;1.45;;;;;;;;;;5107874;28;20087;-78
2021/05/20 04:39:43;;;;;;;2.25;1.20;;;;;;;;;;5107603;28;20442;-79
2021/05/20 04:42:27;;;;;;;3.20;1.20;;;;;;;;;;5103616;28;20074;-79
2021/05/20 04:45:12;;;;;;;2.30;1.30;;;;;;;;;;5100318;28;20042;-79
2021/05/20 04:47:57;;;;;;;3.85;1.42;;;;;;;;;;5106033;28;20489;-79
2021/05/20 04:50:41;;;;;;;2.65;1.20;;;;;;;;;;5104733;28;20155;-79
2021/05/20 04:53:26;;;;;;;1.70;1.00;;;;;;;;;;5107737;28;20050;-79
2021/05/20 04:56:10;;;;;;;3.72;1.17;;;;;;;;;;5106959;28;20058;-79
2021/05/20 04:58:55;;;;;;;3.80;1.15;;;;;;;;;;5107221;28;20658;-78
2021/05/20 05:01:39;;;;;;;2.95;0.98;;;;;;;;;;5100871;28;20092;-79
2021/05/20 05:04:24;;;;;;;1.92;0.98;;;;;;;;;;5106437;28;20400;-79
2021/05/20 05:07:09;;;;;;;2.60;1.10;;;;;;;;;;5103814;28;20064;-79
2021/05/20 05:09:53;;;;;;;2.35;1.10;;;;;;;;;;5101476;28;20085;-79
2021/05/20 05:12:38;;;;;;;4.72;1.20;;;;;;;;;;5102042;28;20054;-79
2021/05/20 05:15:22;;;;;;;4.60;1.45;;;;;;;;;;5097977;28;20535;-78
2021/05/20 05:18:07;;;;;;;2.42;1.02;;;;;;;;;;5108737;28;20035;-79
2021/05/20 05:20:52;;;;;;;3.60;1.13;;;;;;;;;;5107062;28;20422;-79
2021/05/20 05:23:36;;;;;;;2.03;0.85;;;;;;;;;;5105222;28;20061;-79
2021/05/20 05:26:24;;;;;;;3.00;1.20;;;;;;;;;;5107157;28;20038;-79
2021/05/20 05:29:09;;;;;;;2.85;1.20;;;;;;;;;;5102280;28;20117;-78
2021/05/20 05:31:53;;;;;;;2.40;1.08;;;;;;;;;;5106448;28;20053;-79
2021/05/20 05:34:38;;;;;;;2.42;1.08;;;;;;;;;;5104420;28;20087;-79
2021/05/20 05:37:23;;;;;;;3.15;1.23;;;;;;;;;;5106806;28;20078;-79
2021/05/20 05:40:08;;;;;;;3.13;1.30;;;;;;;;;;5100439;28;20122;-78
2021/05/20 05:42:52;;;;;;;4.70;1.30;;;;;;;;;;5106798;28;20084;-79
2021/05/20 05:45:37;;;;;;;3.33;1.10;;;;;;;;;;5107132;28;20034;-78
2021/05/20 05:48:22;;;;;;;3.10;1.10;;;;;;;;;;5106261;28;20046;-79
2021/05/20 05:51:08;;;;;;;3.60;0.98;;;;;;;;;;5106643;28;20077;-79
2021/05/20 05:53:53;;;;;;;2.45;1.20;;;;;;;;;;5107210;28;20200;-79
2021/05/20 05:56:38;;;;;;;2.10;0.90;;;;;;;;;;5105320;28;20155;-78
2021/05/20 05:59:22;;;;;;;3.35;0.85;;;;;;;;;;5103987;28;20387;-78
2021/05/20 06:02:07;;;;;;;3.70;1.00;;;;;;;;;;5103110;28;20169;-78
2021/05/20 06:04:52;;;;;;;2.45;1.08;;;;;;;;;;5103482;28;20407;-78
2021/05/20 06:07:36;;;;;;;2.42;1.55;;;;;;;;;;5106629;28;20532;-78
2021/05/20 06:10:22;;;;;;;2.95;0.90;;;;;;;;;;5103096;28;20392;-78
2021/05/20 06:13:07;;;;;;;2.17;1.00;;;;;;;;;;5108688;28;20108;-77
2021/05/20 06:15:51;;;;;;;3.15;0.98;;;;;;;;;;5106690;28;20084;-79
2021/05/20 06:18:36;;;;;;;2.85;1.00;;;;;;;;;;5106191;28;20283;-78
2021/05/20 06:21:20;;;;;;;2.85;0.90;;;;;;;;;;5107573;28;20050;-78
2021/05/20 06:24:05;;;;;;;1.90;1.00;;;;;;;;;;5101343;28;20050;-78
2021/05/20 06:26:50;;;;;;;2.88;0.80;;;;;;;;;;5098665;28;21407;-78
2021/05/20 06:29:34;;;;;;;2.63;0.85;;;;;;;;;;5104715;28;20066;-79
2021/05/20 06:32:19;;;;;;;4.00;0.90;;;;;;;;;;5103586;28;20086;-79
2021/05/20 06:35:04;;;;;;;4.88;0.88;;;;;;;;;;5105135;28;20069;-79
2021/05/20 06:37:50;;;;;;;3.13;0.88;;;;;;;;;;5106303;28;20077;-78
2021/05/20 06:40:35;;;;;;;3.45;0.85;;;;;;;;;;5081364;28;20042;-78
2021/05/20 06:43:19;;;;;;;2.78;0.90;;;;;;;;;;5100108;28;20089;-78
2021/05/20 06:46:04;;;;;;;2.42;0.90;;;;;;;;;;5105459;28;20545;-78
2021/05/20 06:48:49;;;;;;;4.65;0.90;;;;;;;;;;5107207;28;20153;-78
2021/05/20 06:51:34;;;;;;;2.85;1.05;;;;;;;;;;5106353;28;20158;-78
2021/05/20 06:54:18;;;;;;;5.95;0.90;;;;;;;;;;5102638;28;20077;-78
2021/05/20 06:57:06;;;;;;;2.97;0.82;;;;;;;;;;5097981;28;20212;-79
2021/05/20 07:00:01;;;;;;;3.00;0.90;;;;;;;;;;5102895;28;20057;-78
2021/05/20 07:02:46;;;;;;;3.63;0.80;;;;;;;;;;5097393;28;20041;-78
2021/05/20 07:05:32;;;;;;;4.28;1.00;;;;;;;;;;5102079;28;20066;-78
2021/05/20 07:08:16;;;;;;;5.53;1.40;;;;;;;;;;5107408;28;20063;-78
2021/05/20 07:11:01;;;;;;;3.03;0.98;;;;;;;;;;5092605;28;20061;-78
2021/05/20 07:13:45;;;;;;;3.42;1.00;;;;;;;;;;5107326;28;20096;-77
2021/05/20 07:16:30;;;;;;;4.65;1.17;;;;;;;;;;5107181;28;20046;-79
2021/05/20 07:19:15;;;;;;;2.95;0.90;;;;;;;;;;5107658;28;20050;-79
2021/05/20 07:21:59;;;;;;;3.90;1.05;;;;;;;;;;5107663;28;20419;-78
2021/05/20 07:24:45;;;;;;;2.17;0.70;;;;;;;;;;5091727;28;20046;-79
2021/05/20 07:27:30;;;;;;;2.72;0.82;;;;;;;;;;5104083;28;20047;-79
2021/05/20 07:30:15;;;;;;;3.88;0.82;;;;;;;;;;5107377;28;20054;-79
2021/05/20 07:33:00;;;;;;;3.60;1.45;;;;;;;;;;5106524;28;20061;-79
2021/05/20 07:35:44;;;;;;;3.22;0.93;;;;;;;;;;5106290;28;20085;-80
2021/05/20 07:38:29;;;;;;;3.28;0.90;;;;;;;;;;5106032;28;20766;-79
2021/05/20 07:41:13;;;;;;;2.65;0.80;;;;;;;;;;5107486;28;20038;-79
2021/05/20 07:43:58;;;;;;;1.63;0.90;;;;;;;;;;5107769;28;20050;-77
2021/05/20 07:46:42;;;;;;;1.90;0.85;;;;;;;;;;5102440;28;20042;-78
2021/05/20 07:49:27;;;;;;;2.65;0.82;;;;;;;;;;5111079;28;20109;-78
2021/05/20 07:52:11;;;;;;;1.67;0.80;;;;;;;;;;5109974;28;20194;-80
2021/05/20 07:54:56;;;;;;;4.93;1.10;;;;;;;;;;5110740;28;20403;-80
2021/05/20 07:57:41;;;;;;;2.40;0.90;;;;;;;;;;5105181;28;20038;-80
2021/05/20 08:00:25;;;;;;;3.08;1.00;;;;;;;;;;5091380;28;20047;-80
2021/05/20 08:09:37;;;;;;;2.80;0.90;;;;;;;;;;5110106;28;20948;-80
2021/05/20 08:12:22;;;;;;;2.25;0.93;;;;;;;;;;5110118;28;20093;-81
2021/05/20 08:15:06;;;;;;;1.33;0.70;;;;;;;;;;5100187;28;20038;-81
2021/05/20 08:17:52;;;;;;;2.97;1.05;;;;;;;;;;5109146;28;20086;-81
2021/05/20 08:20:36;;;;;;;6.47;1.00;;;;;;;;;;5110291;28;20130;-81
2021/05/20 08:23:21;;;;;;;2.00;0.90;;;;;;;;;;5109083;28;20064;-81
2021/05/20 08:26:07;;;;;;;4.55;1.20;;;;;;;;;;5110640;28;20085;-81
2021/05/20 08:28:52;;;;;;;4.00;1.15;;;;;;;;;;5109327;28;20668;-81
2021/05/20 08:31:38;;;;;;;6.03;1.10;;;;;;;;;;5109222;28;20176;-81
2021/05/20 08:34:22;;;;;;;4.53;1.02;;;;;;;;;;5110077;28;20088;-81
2021/05/20 08:37:07;;;;;;;3.55;1.00;;;;;;;;;;5104352;28;20074;-81
2021/05/20 08:39:52;;;;;;;2.47;0.95;;;;;;;;;;5090171;28;20423;-81
2021/05/20 08:42:37;;;;;;;3.13;1.10;;;;;;;;;;5109571;28;20026;-81
2021/05/20 08:45:23;;;;;;;3.58;1.00;;;;;;;;;;5110066;28;20080;-81
2021/05/20 08:48:09;;;;;;;6.72;1.20;;;;;;;;;;5097112;28;20042;-81
2021/05/20 08:50:54;;;;;;;2.78;1.17;;;;;;;;;;5101623;28;20109;-83
2021/05/20 08:53:39;;;;;;;2.58;1.00;;;;;;;;;;5108280;28;20101;-81
2021/05/20 08:56:25;;;;;;;2.97;0.90;;;;;;;;;;5106253;28;20200;-81
2021/05/20 08:59:10;;;;;;;5.10;1.15;;;;;;;;;;5099785;28;20054;-81
2021/05/20 09:01:54;;;;;;;3.75;1.08;;;;;;;;;;5102615;28;20050;-81
2021/05/20 09:04:39;;;;;;;4.10;1.02;;;;;;;;;;5102620;28;20035;-81
2021/05/20 09:07:31;;;;;;;3.20;1.30;;;;;;;;;;5109670;28;20499;-81
2021/05/20 09:10:17;;;;;;;;;;;;;;;;;;5107474;28;20500;-83
2021/05/20 09:13:06;;;;;;;4.07;0.90;;;;;;;;;;5109799;28;19915;-81
2021/05/20 09:15:51;;;;;;;1.40;0.82;;;;;;;;;;5109801;28;20067;-81
2021/05/20 09:18:38;;;;;;;3.10;0.90;;;;;;;;;;5108549;28;20038;-81
2021/05/20 09:21:23;;;;;;;2.30;0.90;;;;;;;;;;5108549;28;20506;-81
2021/05/20 09:24:08;;;;;;;1.67;0.90;;;;;;;;;;5109506;28;20097;-81
2021/05/20 09:26:53;;;;;;;2.05;0.90;;;;;;;;;;5108456;28;20035;-81
2021/05/20 09:29:39;;;;;;;1.40;0.70;;;;;;;;;;5109248;28;20052;-81
2021/05/20 09:32:24;;;;;;;3.40;1.15;;;;;;;;;;5094197;28;20055;-81
2021/05/20 09:35:09;;;;;;;2.45;0.90;;;;;;;;;;5109405;28;20085;-81
2021/05/20 09:37:59;;;;;;;2.25;0.80;;;;;;;;;;5109510;28;20092;-81
2021/05/20 09:40:44;;;;;;;2.45;0.80;;;;;;;;;;5101706;28;20221;-81
2021/05/20 09:43:35;;;;;;;1.05;0.60;;;;;;;;;;5091412;28;20540;-81
2021/05/20 09:46:19;;;;;;;1.92;0.60;;;;;;;;;;5089208;28;20035;-81
2021/05/20 09:49:04;;;;;;;2.47;0.80;;;;;;;;;;5102156;28;20058;-81
2021/05/20 09:51:48;;;;;;;2.25;0.95;;;;;;;;;;5107793;28;20516;-80
2021/05/20 09:54:43;;;;;;;1.90;0.80;;;;;;;;;;5109041;28;20490;-81
2021/05/20 09:57:34;;;;;;;2.45;0.77;;;;;;;;;;5108831;28;20082;-81
2021/05/20 10:00:23;;;;;;;1.52;0.60;;;;;;;;;;5102896;28;20046;-81
2021/05/20 10:03:08;;;;;;;3.60;0.65;;;;;;;;;;5092653;28;20105;-81
2021/05/20 10:05:56;;;;;;;1.83;0.90;;;;;;;;;;5112693;28;20165;-81
2021/05/20 10:08:42;;;;;;;2.38;0.70;;;;;;;;;;5117750;28;20061;-81
2021/05/20 10:11:27;;;;;;;1.60;0.70;;;;;;;;;;5120709;28;20087;-80
2021/05/20 10:14:11;;;;;;;1.63;0.90;;;;;;;;;;5099156;28;20734;-82
2021/05/20 10:16:56;;;;;;;1.50;0.70;;;;;;;;;;5096110;28;20069;-81
2021/05/20 10:19:41;;;;;;;1.48;0.57;;;;;;;;;;5088675;28;20419;-81
2021/05/20 10:22:26;;;;;;;2.70;0.73;;;;;;;;;;5083676;28;20045;-81
2021/05/20 10:25:11;;;;;;;2.42;0.68;;;;;;;;;;5091176;28;20396;-81
2021/05/20 10:27:56;;;;;;;2.63;0.80;;;;;;;;;;5099880;28;20406;-80
2021/05/20 10:30:41;;;;;;;2.45;0.70;;;;;;;;;;5107058;28;20494;-81
2021/05/20 10:33:26;;;;;;;1.88;0.60;;;;;;;;;;5092299;28;20054;-81
2021/05/20 10:36:26;;;;;;;1.77;0.93;;;;;;;;;;5092945;28;20035;-81
2021/05/20 10:39:20;;;;;;;1.40;0.60;;;;;;;;;;5083290;28;20089;-81
2021/05/20 10:42:05;;;;;;;1.55;0.70;;;;;;;;;;5089065;28;21626;-81
2021/05/20 10:45:09;;;;;;;2.65;0.60;;;;;;;;;;5099194;28;20042;-81
2021/05/20 10:48:03;;;;;;;1.25;0.73;;;;;;;;;;5081413;28;20574;-81
2021/05/20 10:50:51;;;;;;;1.52;0.63;;;;;;;;;;5096508;28;20055;-81
2021/05/20 10:53:39;;;;;;;2.40;0.80;;;;;;;;;;5099342;28;20078;-81
2021/05/20 10:56:24;;;;;;;1.63;0.70;;;;;;;;;;5083582;28;20076;-81
2021/05/20 10:59:28;;;;;;;1.08;0.60;;;;;;;;;;5103478;28;20046;-80
2021/05/20 11:02:13;;;;;;;1.88;0.60;;;;;;;;;;5099187;28;20429;-80
2021/05/20 11:04:58;;;;;;;0.90;0.60;;;;;;;;;;5086220;28;20454;-81
2021/05/20 11:07:43;;;;;;;1.60;0.70;;;;;;;;;;5108099;28;20034;-80
2021/05/20 11:10:35;;;;;;;2.08;0.70;;;;;;;;;;5106607;28;21948;-80
2021/05/20 11:13:36;;;;;;;1.50;0.68;;;;;;;;;;5107151;28;20042;-80
2021/05/20 11:16:28;;;;;;;1.23;0.60;;;;;;;;;;5101643;28;20134;-81
2021/05/20 11:19:13;;;;;;;;;;;;;;;;;;5092247;27;20051;-81
2021/05/20 11:22:09;;;;;;;1.35;0.60;;;;;;;;;;5115538;27;19922;-81
2021/05/20 11:25:09;;;;;;;1.20;0.55;;;;;;;;;;5125390;27;20038;-80
2021/05/20 11:27:56;;;;;;;1.23;0.60;;;;;;;;;;5115159;27;20078;-81
2021/05/20 11:30:40;;;;;;;1.73;0.70;;;;;;;;;;5120146;27;20513;-81
2021/05/20 11:33:27;;;;;;;0.73;0.50;;;;;;;;;;5130040;27;20047;-80
2021/05/20 11:36:14;;;;;;;1.15;0.60;;;;;;;;;;5132030;27;20049;-81
2021/05/20 11:39:00;;;;;;;1.75;0.68;;;;;;;;;;5131399;27;20069;-80
2021/05/20 11:41:45;;;;;;;1.58;0.75;;;;;;;;;;5114731;27;20046;-81
2021/05/20 11:44:29;;;;;;;2.15;0.70;;;;;;;;;;5122159;27;20936;-81
2021/05/20 11:47:14;;;;;;;2.15;0.63;;;;;;;;;;5131728;27;20077;-80
2021/05/20 11:49:58;;;;;;;1.50;0.70;;;;;;;;;;5128901;27;20042;-81
2021/05/20 11:52:43;;;;;;;2.55;0.70;;;;;;;;;;5114043;27;20060;-81
2021/05/20 11:55:30;;;;;;;2.17;0.70;;;;;;;;;;5129464;27;20080;-81
2021/05/20 11:58:16;;;;;;;1.10;0.57;;;;;;;;;;5106543;27;20108;-81
2021/05/20 12:01:01;;;;;;;1.90;0.68;;;;;;;;;;5119189;27;20037;-81
2021/05/20 12:03:46;;;;;;;0.98;0.60;;;;;;;;;;5111040;27;20054;-76
2021/05/20 12:06:30;;;;;;;1.80;0.70;;;;;;;;;;5123939;27;20065;-76
2021/05/20 12:09:16;;;;;;;1.30;0.60;;;;;;;;;;5113889;27;20054;-78
2021/05/20 12:12:07;;;;;;;3.88;0.95;;;;;;;;;;5108781;27;20050;-75
2021/05/20 12:14:53;;;;;;;3.47;0.63;;;;;;;;;;5108685;27;20176;-78
2021/05/20 12:17:39;;;;;;;3.88;1.02;;;;;;;;;;5119515;27;20130;-78
2021/05/20 12:20:26;;;;;;;1.90;0.70;;;;;;;;;;5118253;27;20526;-82
2021/05/20 12:23:11;;;;;;;1.70;0.80;;;;;;;;;;5132774;27;20122;-82
2021/05/20 12:25:57;;;;;;;2.28;0.70;;;;;;;;;;5121269;27;20084;-81
2021/05/20 12:28:42;;;;;;;1.00;0.60;;;;;;;;;;5121179;27;20402;-79
2021/05/20 12:31:26;;;;;;;3.65;0.85;;;;;;;;;;5119523;27;20107;-80
2021/05/20 12:34:19;;;;;;;3.60;0.77;;;;;;;;;;5121247;27;20099;-80
2021/05/20 12:37:09;;;;;;;1.40;0.70;;;;;;;;;;5099993;27;20100;-81
2021/05/20 12:39:54;;;;;;;1.77;0.70;;;;;;;;;;5108888;27;20139;-80
2021/05/20 12:42:38;;;;;;;2.78;0.75;;;;;;;;;;5136049;27;20380;-79
2021/05/20 12:45:27;;;;;;;2.97;0.70;;;;;;;;;;5137037;27;20431;-80
2021/05/20 12:48:38;;;;;;;1.48;0.90;;;;;;;;;;5119194;27;20041;-81
2021/05/20 12:51:24;;;;;;;2.67;0.68;;;;;;;;;;5119390;27;20127;-79
2021/05/20 12:54:10;;;;;;;1.98;0.77;;;;;;;;;;5103422;27;20097;-78
2021/05/20 12:57:05;;;;;;;3.10;1.05;;;;;;;;;;5132677;27;20090;-79
2021/05/20 12:59:49;;;;;;;1.70;0.70;;;;;;;;;;5106424;27;20057;-79
2021/05/20 13:02:34;;;;;;;4.07;0.77;;;;;;;;;;5096492;27;20092;-81
2021/05/20 13:05:18;;;;;;;1.80;0.60;;;;;;;;;;5104824;27;20053;-78
2021/05/20 13:08:08;;;;;;;2.75;0.85;;;;;;;;;;5130049;27;20053;-81
2021/05/20 13:10:52;;;;;;;1.90;0.63;;;;;;;;;;5102593;27;20453;-81
2021/05/20 13:13:40;;;;;;;0.90;0.50;;;;;;;;;;5130051;27;20499;-83
2021/05/20 13:25:08;;;;;;;1.00;0.65;;;;;;;;;;5129635;27;20042;-77
2021/05/20 13:27:53;;;;;;;1.73;0.55;;;;;;;;;;5113857;27;20038;-77
2021/05/20 13:30:43;;;;;;;0.95;0.60;;;;;;;;;;5129559;27;20108;-77
2021/05/20 13:33:30;;;;;;;1.70;0.80;;;;;;;;;;5129267;27;20122;-77
2021/05/20 13:36:14;;;;;;;3.70;0.70;;;;;;;;;;5113715;27;20042;-77
2021/05/20 13:38:59;;;;;;;1.45;0.50;;;;;;;;;;5129117;27;20077;-77
2021/05/20 13:41:43;;;;;;;2.42;0.70;;;;;;;;;;5113074;27;20034;-77
2021/05/20 13:44:28;;;;;;;3.60;0.80;;;;;;;;;;5129326;27;20461;-77
2021/05/20 13:47:13;;;;;;;2.05;0.70;;;;;;;;;;5128621;27;20120;-77
2021/05/20 13:49:57;;;;;;;2.22;0.80;;;;;;;;;;5113418;27;20072;-77
2021/05/20 13:52:44;;;;;;;2.15;0.70;;;;;;;;;;5129502;27;20054;-77
2021/05/20 13:55:28;;;;;;;2.75;0.88;;;;;;;;;;5113460;27;20050;-77
2021/05/20 13:58:14;;;;;;;1.83;0.80;;;;;;;;;;5128894;27;20102;-77
2021/05/20 14:01:00;;;;;;;2.55;0.80;;;;;;;;;;5112722;27;20072;-77
2021/05/20 14:03:51;;;;;;;1.92;0.68;;;;;;;;;;5128790;27;20577;-76
2021/05/20 14:06:37;;;;;;;2.40;0.80;;;;;;;;;;5128762;27;20164;-77
2021/05/20 14:09:21;;;;;;;1.70;0.85;;;;;;;;;;5128246;27;20038;-77
2021/05/20 14:12:06;;;;;;;1.63;0.77;;;;;;;;;;5128630;27;20105;-77
2021/05/20 14:14:51;;;;;;;2.97;1.10;;;;;;;;;;5113270;27;20177;-77
2021/05/20 14:17:36;;;;;;;7.03;1.10;;;;;;;;;;5127763;27;20087;-77
2021/05/20 14:20:22;;;;;;;4.18;1.00;;;;;;;;;;5128008;27;20054;-77
2021/05/20 14:23:06;;;;;;;2.95;1.00;;;;;;;;;;5128574;27;20533;-77
2021/05/20 14:25:52;;;;;;;2.78;1.05;;;;;;;;;;5128390;27;20051;-77
2021/05/20 14:28:37;;;;;;;3.50;1.20;;;;;;;;;;5128465;27;20041;-77
2021/05/20 14:31:21;;;;;;;4.07;0.90;;;;;;;;;;5127573;27;20093;-77
2021/05/20 14:34:06;;;;;;;3.10;1.13;;;;;;;;;;5128376;28;20043;-77
2021/05/20 14:36:51;;;;;;;3.67;1.20;;;;;;;;;;5128254;27;20096;-77
2021/05/20 14:39:35;;;;;;;3.38;1.17;;;;;;;;;;5128302;27;20651;-78
2021/05/20 14:42:23;;;;;;;2.92;1.50;;;;;;;;;;5128011;27;20091;-77
2021/05/20 14:45:08;;;;;;;3.85;1.38;;;;;;;;;;5092496;28;20042;-77
2021/05/20 14:47:53;;;;;;;4.88;1.45;;;;;;;;;;5115408;28;20064;-77
2021/05/20 14:50:42;;;;;;;5.60;1.40;;;;;;;;;;5127861;28;20073;-77
2021/05/20 14:53:29;;;;;;;3.83;1.30;;;;;;;;;;5127714;27;20094;-77
2021/05/20 15:05:13;;;;;;;4.93;1.60;;;;;;;;;;5111907;28;20112;-81
2021/05/20 15:07:58;;;;;;;5.88;1.80;;;;;;;;;;5120680;27;20037;-81
2021/05/20 15:10:55;;;;;;;4.90;1.20;;;;;;;;;;5132036;27;20103;-81
2021/05/20 15:13:54;;;;;;;5.35;1.48;;;;;;;;;;5116311;27;20073;-82
2021/05/20 15:16:59;;;;;;;8.60;1.70;;;;;;;;;;5132558;27;20060;-82
2021/05/20 15:19:44;;;;;;;5.88;1.75;;;;;;;;;;5109292;28;20050;-86
2021/05/20 15:22:28;;;;;;;5.78;1.60;;;;;;;;;;5086388;28;20069;-82
2021/05/20 15:25:13;;;;;;;5.80;1.52;;;;;;;;;;5091740;28;20055;-82
2021/05/20 15:27:59;;;;;;;5.80;1.70;;;;;;;;;;5102572;28;20034;-82
2021/05/20 15:30:44;;;;;;;8.63;2.13;;;;;;;;;;5096201;28;20055;-82
2021/05/20 15:33:28;;;;;;;6.13;1.73;;;;;;;;;;5110929;28;20047;-82
2021/05/20 15:36:13;;;;;;;4.90;1.70;;;;;;;;;;5111483;28;20043;-82
2021/05/20 15:38:57;;;;;;;5.88;1.80;;;;;;;;;;5111061;28;20141;-82
2021/05/20 15:41:42;;;;;;;6.70;1.50;;;;;;;;;;5111517;28;20487;-82
2021/05/20 15:44:27;;;;;;;6.13;1.48;;;;;;;;;;5087200;28;20077;-82
2021/05/20 15:50:17;;;;;;;4.72;1.50;;;;;;;;;;5090203;28;20127;-82
2021/05/20 15:53:02;;;;;;;4.65;1.40;;;;;;;;;;5104725;28;20116;-82
2021/05/20 15:55:47;;;;;;;4.45;1.52;;;;;;;;;;5095596;28;20050;-82
2021/05/20 15:58:31;;;;;;;4.30;1.40;;;;;;;;;;5095005;28;20538;-82
2021/05/20 16:01:16;;;;;;;3.20;1.30;;;;;;;;;;5111360;28;20046;-83
2021/05/20 16:04:00;;;;;;;6.43;1.55;;;;;;;;;;5108881;28;20138;-79
2021/05/20 16:06:49;;;;;;;5.78;1.50;;;;;;;;;;5102924;27;20042;-80
2021/05/20 16:10:03;;;;;;;5.45;1.45;;;;;;;;;;5110375;28;20442;-79
2021/05/20 16:15:30;;;;;;;3.58;1.50;;;;;;;;;;5086543;28;20043;-80
2021/05/20 16:18:15;;;;;;;4.75;1.45;;;;;;;;;;5108436;28;20423;-82
2021/05/20 16:21:00;;;;;;;4.53;1.52;;;;;;;;;;5110381;28;20120;-81
2021/05/20 16:24:01;;;;;;;5.78;1.45;;;;;;;;;;5095782;28;20041;-82
2021/05/20 16:36:01;;;;;;;3.17;1.40;;;;;;;;;;5110279;28;20404;-82
2021/05/20 16:38:46;;;;;;;3.05;1.15;;;;;;;;;;5069809;28;20089;-84
2021/05/20 16:41:30;;;;;;;2.75;1.17;;;;;;;;;;5109368;28;20051;-82
2021/05/20 16:44:15;;;;;;;3.20;1.35;;;;;;;;;;5109861;28;20523;-81
2021/05/20 16:47:00;;;;;;;3.95;1.10;;;;;;;;;;5109210;28;20110;-83
2021/05/20 16:49:44;;;;;;;6.60;1.67;;;;;;;;;;5093603;28;20101;-81
2021/05/20 16:52:32;;;;;;;2.60;1.20;;;;;;;;;;5108512;28;20069;-83
2021/05/20 16:55:25;;;;;;;2.88;1.23;;;;;;;;;;5109681;28;20035;-83
2021/05/20 17:00:58;;;;;;;3.53;1.38;;;;;;;;;;5109521;28;20055;-78
2021/05/20 17:03:43;;;;;;;4.13;1.48;;;;;;;;;;5080239;28;20070;-78
2021/05/20 17:06:28;;;;;;;4.10;1.30;;;;;;;;;;5093516;28;20050;-78
2021/05/20 17:09:13;;;;;;;3.75;1.42;;;;;;;;;;5102115;28;20035;-76
2021/05/20 17:12:00;;;;;;;3.28;1.30;;;;;;;;;;5093154;28;20081;-77
2021/05/20 17:14:44;;;;;;;2.75;1.48;;;;;;;;;;5108893;28;20047;-77
2021/05/20 17:17:29;;;;;;;2.05;1.13;;;;;;;;;;5107378;28;20042;-77
2021/05/20 17:20:14;;;;;;;2.00;1.20;;;;;;;;;;5088720;28;20050;-77